sensor_id;sensor_type;location;lat;lon;timestamp;pressure;altitude;pressure_sealevel;temperature;humidity
47785;BME280;35233;55.686;37.848;2023-04-28T00:00:26;99242.63;;;20.03;41.27
47785;BME280;35233;55.686;37.848;2023-04-28T00:02:51;99232.13;;;20.00;41.09
47785;BME280;35233;55.686;37.848;2023-04-28T00:05:18;99234.72;;;20.01;41.01
47785;BME280;35233;55.686;37.848;2023-04-28T00:07:44;99226.16;;;19.96;41.07
47785;BME280;35233;55.686;37.848;2023-04-28T00:10:10;99228.72;;;19.98;41.27
47785;BME280;35233;55.686;37.848;2023-04-28T00:12:35;99236.03;;;19.96;41.19
47785;BME280;35233;55.686;37.848;2023-04-28T00:15:01;99236.88;;;19.96;41.44
47785;BME280;35233;55.686;37.848;2023-04-28T00:17:27;99238.06;;;19.92;41.21
47785;BME280;35233;55.686;37.848;2023-04-28T00:19:53;99235.38;;;19.92;41.22
47785;BME280;35233;55.686;37.848;2023-04-28T00:22:19;99220.59;;;19.86;41.44
47785;BME280;35233;55.686;37.848;2023-04-28T00:24:44;99223.03;;;19.89;41.29
47785;BME280;35233;55.686;37.848;2023-04-28T00:27:10;99219.66;;;19.87;41.45
47785;BME280;35233;55.686;37.848;2023-04-28T00:29:35;99219.97;;;19.83;41.34
47785;BME280;35233;55.686;37.848;2023-04-28T00:32:01;99227.06;;;19.84;41.33
47785;BME280;35233;55.686;37.848;2023-04-28T00:34:27;99222.56;;;19.84;41.24
47785;BME280;35233;55.686;37.848;2023-04-28T00:36:54;99223.63;;;19.82;41.40
47785;BME280;35233;55.686;37.848;2023-04-28T00:39:20;99229.09;;;19.80;41.31
47785;BME280;35233;55.686;37.848;2023-04-28T00:41:47;99218.59;;;19.77;41.21
47785;BME280;35233;55.686;37.848;2023-04-28T00:44:13;99216.66;;;19.79;41.21
47785;BME280;35233;55.686;37.848;2023-04-28T00:46:38;99224.94;;;19.76;41.29
47785;BME280;35233;55.686;37.848;2023-04-28T00:49:04;99221.50;;;19.74;41.35
47785;BME280;35233;55.686;37.848;2023-04-28T00:51:30;99224.94;;;19.76;41.28
47785;BME280;35233;55.686;37.848;2023-04-28T00:53:58;99218.19;;;19.71;41.41
47785;BME280;35233;55.686;37.848;2023-04-28T00:56:24;99221.50;;;19.74;41.48
47785;BME280;35233;55.686;37.848;2023-04-28T00:58:52;99223.56;;;19.71;41.48
47785;BME280;35233;55.686;37.848;2023-04-28T01:04:02;99215.00;;;19.65;41.43
47785;BME280;35233;55.686;37.848;2023-04-28T01:06:28;99218.50;;;19.66;41.44
47785;BME280;35233;55.686;37.848;2023-04-28T01:09:13;99220.34;;;19.65;41.29
47785;BME280;35233;55.686;37.848;2023-04-28T01:11:38;99224.06;;;19.63;41.34
47785;BME280;35233;55.686;37.848;2023-04-28T01:14:04;99224.06;;;19.63;41.25
47785;BME280;35233;55.686;37.848;2023-04-28T01:16:30;99226.03;;;19.61;41.32
47785;BME280;35233;55.686;37.848;2023-04-28T01:19:19;99222.59;;;19.59;41.40
47785;BME280;35233;55.686;37.848;2023-04-28T01:21:46;99229.03;;;19.56;41.48
47785;BME280;35233;55.686;37.848;2023-04-28T01:24:12;99224.28;;;19.60;41.35
47785;BME280;35233;55.686;37.848;2023-04-28T01:26:37;99228.94;;;19.58;41.33
47785;BME280;35233;55.686;37.848;2023-04-28T01:29:03;99241.44;;;19.57;41.35
47785;BME280;35233;55.686;37.848;2023-04-28T01:31:28;99234.69;;;19.52;41.37
47785;BME280;35233;55.686;37.848;2023-04-28T01:33:55;99227.88;;;19.48;41.30
47785;BME280;35233;55.686;37.848;2023-04-28T01:36:21;99238.34;;;19.51;41.46
47785;BME280;35233;55.686;37.848;2023-04-28T01:38:48;99245.31;;;19.53;41.52
47785;BME280;35233;55.686;37.848;2023-04-28T01:41:13;99243.84;;;19.49;41.62
47785;BME280;35233;55.686;37.848;2023-04-28T01:43:39;99241.88;;;19.51;41.58
47785;BME280;35233;55.686;37.848;2023-04-28T01:46:04;99236.53;;;19.51;41.55
47785;BME280;35233;55.686;37.848;2023-04-28T01:48:30;99239.34;;;19.50;41.36
47785;BME280;35233;55.686;37.848;2023-04-28T01:50:56;99242.09;;;19.48;41.47
47785;BME280;35233;55.686;37.848;2023-04-28T01:53:21;99242.09;;;19.48;41.40
47785;BME280;35233;55.686;37.848;2023-04-28T01:55:47;99236.13;;;19.44;41.62
47785;BME280;35233;55.686;37.848;2023-04-28T01:58:13;99228.09;;;19.44;41.60
47785;BME280;35233;55.686;37.848;2023-04-28T02:00:38;99223.72;;;19.43;41.50
47785;BME280;35233;55.686;37.848;2023-04-28T02:03:04;99223.78;;;19.42;41.42
47785;BME280;35233;55.686;37.848;2023-04-28T02:05:29;99222.94;;;19.41;41.54
47785;BME280;35233;55.686;37.848;2023-04-28T02:07:55;99220.91;;;19.45;41.62
47785;BME280;35233;55.686;37.848;2023-04-28T02:10:20;99213.84;;;19.44;41.57
47785;BME280;35233;55.686;37.848;2023-04-28T02:12:46;99213.00;;;19.43;41.32
47785;BME280;35233;55.686;37.848;2023-04-28T02:15:11;99218.22;;;19.45;41.39
47785;BME280;35233;55.686;37.848;2023-04-28T02:17:37;99208.69;;;19.41;41.41
47785;BME280;35233;55.686;37.848;2023-04-28T02:20:20;99214.91;;;19.41;41.48
47785;BME280;35233;55.686;37.848;2023-04-28T02:25:49;99221.88;;;19.44;41.43
47785;BME280;35233;55.686;37.848;2023-04-28T02:28:33;99230.13;;;19.41;41.57
47785;BME280;35233;55.686;37.848;2023-04-28T02:31:06;99225.63;;;19.41;41.44
47785;BME280;35233;55.686;37.848;2023-04-28T02:33:32;99226.38;;;19.43;41.88
47785;BME280;35233;55.686;37.848;2023-04-28T02:36:01;99222.63;;;19.46;41.03
47785;BME280;35233;55.686;37.848;2023-04-28T02:41:30;99236.22;;;19.43;41.25
47785;BME280;35233;55.686;37.848;2023-04-28T02:43:55;99243.41;;;19.42;41.30
47785;BME280;35233;55.686;37.848;2023-04-28T02:46:40;99254.78;;;19.46;41.44
47785;BME280;35233;55.686;37.848;2023-04-28T02:49:05;99247.47;;;19.48;41.10
47785;BME280;35233;55.686;37.848;2023-04-28T02:51:31;99240.84;;;19.41;41.34
47785;BME280;35233;55.686;37.848;2023-04-28T02:53:57;99239.56;;;19.47;41.23
47785;BME280;35233;55.686;37.848;2023-04-28T02:56:22;99225.41;;;19.44;41.18
47785;BME280;35233;55.686;37.848;2023-04-28T02:58:48;99240.28;;;19.49;41.27
47785;BME280;35233;55.686;37.848;2023-04-28T03:01:13;99251.97;;;19.48;41.44
47785;BME280;35233;55.686;37.848;2023-04-28T03:03:39;99256.25;;;19.50;41.08
47785;BME280;35233;55.686;37.848;2023-04-28T03:06:04;99251.97;;;19.48;41.16
47785;BME280;35233;55.686;37.848;2023-04-28T03:08:30;99235.16;;;19.45;41.29
47785;BME280;35233;55.686;37.848;2023-04-28T03:10:56;99230.75;;;19.44;41.09
47785;BME280;35233;55.686;37.848;2023-04-28T03:13:21;99239.56;;;19.47;41.48
47785;BME280;35233;55.686;37.848;2023-04-28T03:15:46;99243.19;;;19.45;41.05
47785;BME280;35233;55.686;37.848;2023-04-28T03:18:12;99243.19;;;19.45;41.20
47785;BME280;35233;55.686;37.848;2023-04-28T03:20:37;99247.59;;;19.47;41.17
47785;BME280;35233;55.686;37.848;2023-04-28T03:23:03;99253.91;;;19.45;41.19
47785;BME280;35233;55.686;37.848;2023-04-28T03:25:28;99251.66;;;19.39;41.30
47785;BME280;35233;55.686;37.848;2023-04-28T03:27:54;99262.69;;;19.48;41.13
47785;BME280;35233;55.686;37.848;2023-04-28T03:33:04;99268.91;;;19.48;41.18
47785;BME280;35233;55.686;37.848;2023-04-28T03:35:30;99261.31;;;19.42;41.27
47785;BME280;35233;55.686;37.848;2023-04-28T03:37:55;99260.22;;;19.44;41.15
47785;BME280;35233;55.686;37.848;2023-04-28T03:40:21;99264.63;;;19.45;41.37
47785;BME280;35233;55.686;37.848;2023-04-28T03:42:46;99265.28;;;19.49;41.26
47785;BME280;35233;55.686;37.848;2023-04-28T03:45:12;99266.97;;;19.50;41.10
47785;BME280;35233;55.686;37.848;2023-04-28T03:47:38;99266.13;;;19.50;41.31
47785;BME280;35233;55.686;37.848;2023-04-28T03:50:03;99262.47;;;19.51;41.41
47785;BME280;35233;55.686;37.848;2023-04-28T03:52:29;99263.31;;;19.51;41.74
47785;BME280;35233;55.686;37.848;2023-04-28T03:54:55;99258.94;;;19.50;41.75
47785;BME280;35233;55.686;37.848;2023-04-28T03:57:20;99259.91;;;19.49;41.95
47785;BME280;35233;55.686;37.848;2023-04-28T03:59:46;99272.56;;;19.47;41.80
47785;BME280;35233;55.686;37.848;2023-04-28T04:02:11;99268.69;;;19.51;42.16
47785;BME280;35233;55.686;37.848;2023-04-28T04:04:55;99266.66;;;19.55;42.24
47785;BME280;35233;55.686;37.848;2023-04-28T04:07:21;99266.53;;;19.56;42.06
47785;BME280;35233;55.686;37.848;2023-04-28T04:09:47;99274.25;;;19.61;42.17
47785;BME280;35233;55.686;37.848;2023-04-28T04:12:13;99268.50;;;19.67;42.11
47785;BME280;35233;55.686;37.848;2023-04-28T04:14:38;99267.41;;;19.70;42.15
47785;BME280;35233;55.686;37.848;2023-04-28T04:17:04;99270.81;;;19.72;41.89
47785;BME280;35233;55.686;37.848;2023-04-28T04:19:30;99268.78;;;19.75;42.55
47785;BME280;35233;55.686;37.848;2023-04-28T04:21:56;99261.59;;;19.76;42.43
47785;BME280;35233;55.686;37.848;2023-04-28T04:24:21;99276.94;;;19.74;42.40
47785;BME280;35233;55.686;37.848;2023-04-28T04:26:46;99280.06;;;19.67;42.84
47785;BME280;35233;55.686;37.848;2023-04-28T04:29:12;99279.06;;;19.68;42.90
47785;BME280;35233;55.686;37.848;2023-04-28T04:31:37;99291.75;;;19.66;42.75
47785;BME280;35233;55.686;37.848;2023-04-28T04:34:03;99284.56;;;19.67;42.94
47785;BME280;35233;55.686;37.848;2023-04-28T04:36:29;99278.44;;;19.65;42.81
47785;BME280;35233;55.686;37.848;2023-04-28T04:38:54;99276.94;;;19.74;42.88
47785;BME280;35233;55.686;37.848;2023-04-28T04:41:20;99287.34;;;19.78;42.89
47785;BME280;35233;55.686;37.848;2023-04-28T04:43:47;99287.75;;;19.85;42.59
47785;BME280;35233;55.686;37.848;2023-04-28T04:46:13;99298.34;;;19.86;42.74
47785;BME280;35233;55.686;37.848;2023-04-28T04:48:39;99303.28;;;19.93;42.59
47785;BME280;35233;55.686;37.848;2023-04-28T04:51:04;99296.09;;;19.93;42.63
47785;BME280;35233;55.686;37.848;2023-04-28T04:53:30;99297.78;;;19.94;42.52
47785;BME280;35233;55.686;37.848;2023-04-28T04:55:55;99302.94;;;19.97;42.42
47785;BME280;35233;55.686;37.848;2023-04-28T04:58:21;99303.78;;;19.98;42.06
47785;BME280;35233;55.686;37.848;2023-04-28T05:00:46;99295.34;;;19.91;42.09
47785;BME280;35233;55.686;37.848;2023-04-28T05:03:12;99304.22;;;19.92;42.43
47785;BME280;35233;55.686;37.848;2023-04-28T05:05:38;99302.78;;;20.84;41.18
47785;BME280;35233;55.686;37.848;2023-04-28T05:08:04;99294.06;;;21.04;40.58
47785;BME280;35233;55.686;37.848;2023-04-28T05:10:30;99293.69;;;21.09;40.65
47785;BME280;35233;55.686;37.848;2023-04-28T05:13:14;99294.47;;;21.33;40.48
47785;BME280;35233;55.686;37.848;2023-04-28T05:15:40;99285.31;;;21.36;39.92
47785;BME280;35233;55.686;37.848;2023-04-28T05:18:05;99308.31;;;21.40;40.02
47785;BME280;35233;55.686;37.848;2023-04-28T05:20:35;99302.84;;;21.41;39.69
47785;BME280;35233;55.686;37.848;2023-04-28T05:23:00;99307.31;;;21.41;40.34
47785;BME280;35233;55.686;37.848;2023-04-28T05:25:27;99307.47;;;21.39;39.80
47785;BME280;35233;55.686;37.848;2023-04-28T05:27:52;99305.38;;;21.43;40.24
47785;BME280;35233;55.686;37.848;2023-04-28T05:30:18;99298.91;;;21.45;39.57
47785;BME280;35233;55.686;37.848;2023-04-28T05:32:43;99303.56;;;21.55;39.87
47785;BME280;35233;55.686;37.848;2023-04-28T05:35:09;99299.66;;;21.59;39.83
47785;BME280;35233;55.686;37.848;2023-04-28T05:37:34;99309.06;;;21.64;39.79
47785;BME280;35233;55.686;37.848;2023-04-28T05:40:02;99309.19;;;21.63;39.17
47785;BME280;35233;55.686;37.848;2023-04-28T05:42:27;99313.72;;;21.62;39.41
47785;BME280;35233;55.686;37.848;2023-04-28T05:44:53;99306.25;;;21.66;39.84
47785;BME280;35233;55.686;37.848;2023-04-28T05:47:18;99312.38;;;21.68;39.92
47785;BME280;35233;55.686;37.848;2023-04-28T05:49:44;99304.41;;;21.66;39.99
47785;BME280;35233;55.686;37.848;2023-04-28T05:52:09;99305.66;;;21.74;39.73
47785;BME280;35233;55.686;37.848;2023-04-28T05:54:35;99292.44;;;21.82;40.14
47785;BME280;35233;55.686;37.848;2023-04-28T05:57:00;99294.41;;;21.91;39.77
47785;BME280;35233;55.686;37.848;2023-04-28T05:59:26;99292.06;;;21.98;39.93
47785;BME280;35233;55.686;37.848;2023-04-28T06:01:52;99298.53;;;22.06;39.51
47785;BME280;35233;55.686;37.848;2023-04-28T06:04:18;99301.31;;;22.05;39.84
47785;BME280;35233;55.686;37.848;2023-04-28T06:06:44;99296.81;;;22.05;39.69
47785;BME280;35233;55.686;37.848;2023-04-28T06:09:09;99299.50;;;22.05;40.15
47785;BME280;35233;55.686;37.848;2023-04-28T06:11:35;99298.28;;;21.98;40.23
47785;BME280;35233;55.686;37.848;2023-04-28T06:14:00;99297.34;;;21.88;40.14
47785;BME280;35233;55.686;37.848;2023-04-28T06:16:27;99287.78;;;21.84;40.51
47785;BME280;35233;55.686;37.848;2023-04-28T06:18:54;99295.09;;;21.93;40.35
47785;BME280;35233;55.686;37.848;2023-04-28T06:21:19;99293.72;;;22.10;40.04
47785;BME280;35233;55.686;37.848;2023-04-28T06:23:45;99300.81;;;22.33;40.19
47785;BME280;35233;55.686;37.848;2023-04-28T06:26:11;99304.19;;;22.47;39.78
47785;BME280;35233;55.686;37.848;2023-04-28T06:28:37;99304.53;;;22.53;39.50
47785;BME280;35233;55.686;37.848;2023-04-28T06:31:02;99309.81;;;22.55;39.78
47785;BME280;35233;55.686;37.848;2023-04-28T06:33:28;99302.84;;;22.52;39.71
47785;BME280;35233;55.686;37.848;2023-04-28T06:35:53;99308.69;;;22.57;40.09
47785;BME280;35233;55.686;37.848;2023-04-28T06:38:19;99309.41;;;22.59;40.25
47785;BME280;35233;55.686;37.848;2023-04-28T06:40:44;99316.63;;;22.59;40.17
47785;BME280;35233;55.686;37.848;2023-04-28T06:43:10;99308.69;;;22.57;40.10
47785;BME280;35233;55.686;37.848;2023-04-28T06:45:37;99306.72;;;22.59;40.23
47785;BME280;35233;55.686;37.848;2023-04-28T06:48:02;99326.03;;;22.65;40.25
47785;BME280;35233;55.686;37.848;2023-04-28T06:50:28;99319.22;;;22.60;40.44
47785;BME280;35233;55.686;37.848;2023-04-28T06:52:54;99320.09;;;22.50;40.77
47785;BME280;35233;55.686;37.848;2023-04-28T06:55:19;99322.97;;;22.37;40.96
47785;BME280;35233;55.686;37.848;2023-04-28T06:57:45;99322.00;;;22.27;41.01
47785;BME280;35233;55.686;37.848;2023-04-28T07:00:12;99331.31;;;22.23;40.97
47785;BME280;35233;55.686;37.848;2023-04-28T07:02:38;99332.41;;;22.20;41.01
47785;BME280;35233;55.686;37.848;2023-04-28T07:05:05;99316.38;;;22.19;40.67
47785;BME280;35233;55.686;37.848;2023-04-28T07:07:31;99332.38;;;22.31;40.44
47785;BME280;35233;55.686;37.848;2023-04-28T07:10:02;99320.50;;;22.34;40.21
47785;BME280;35233;55.686;37.848;2023-04-28T07:12:28;99322.19;;;22.46;40.19
47785;BME280;35233;55.686;37.848;2023-04-28T07:14:54;99336.50;;;20.40;45.29
47785;BME280;35233;55.686;37.848;2023-04-28T07:17:20;99333.66;;;19.55;47.81
47785;BME280;35233;55.686;37.848;2023-04-28T07:19:48;99341.94;;;18.99;49.40
47785;BME280;35233;55.686;37.848;2023-04-28T07:22:15;99344.31;;;18.91;50.18
47785;BME280;35233;55.686;37.848;2023-04-28T07:24:41;99341.81;;;18.61;51.55
47785;BME280;35233;55.686;37.848;2023-04-28T07:27:06;99343.88;;;18.70;51.72
47785;BME280;35233;55.686;37.848;2023-04-28T07:29:32;99344.75;;;18.70;51.32
47785;BME280;35233;55.686;37.848;2023-04-28T07:32:00;99348.84;;;18.76;51.24
47785;BME280;35233;55.686;37.848;2023-04-28T07:34:26;99345.25;;;18.36;52.09
47785;BME280;35233;55.686;37.848;2023-04-28T07:36:52;99348.91;;;18.20;52.74
47785;BME280;35233;55.686;37.848;2023-04-28T07:39:17;99349.19;;;18.30;52.38
47785;BME280;35233;55.686;37.848;2023-04-28T07:41:43;99341.44;;;18.25;52.66
47785;BME280;35233;55.686;37.848;2023-04-28T07:44:08;99344.81;;;18.15;52.87
47785;BME280;35233;55.686;37.848;2023-04-28T07:46:53;99351.41;;;18.09;53.34
47785;BME280;35233;55.686;37.848;2023-04-28T07:49:19;99351.53;;;18.35;51.98
47785;BME280;35233;55.686;37.848;2023-04-28T07:51:51;99350.16;;;18.15;53.19
47785;BME280;35233;55.686;37.848;2023-04-28T07:54:37;99341.31;;;18.68;51.45
47785;BME280;35233;55.686;37.848;2023-04-28T07:57:09;99337.38;;;19.27;49.94
47785;BME280;35233;55.686;37.848;2023-04-28T07:59:44;99334.38;;;19.44;49.07
47785;BME280;35233;55.686;37.848;2023-04-28T08:02:11;99325.56;;;19.16;50.29
47785;BME280;35233;55.686;37.848;2023-04-28T08:04:51;99331.13;;;19.00;50.90
47785;BME280;35233;55.686;37.848;2023-04-28T08:07:23;99339.25;;;18.59;51.80
47785;BME280;35233;55.686;37.848;2023-04-28T08:09:56;99336.00;;;18.81;50.98
47785;BME280;35233;55.686;37.848;2023-04-28T08:15:15;99332.19;;;18.85;51.21
47785;BME280;35233;55.686;37.848;2023-04-28T08:17:44;99324.47;;;18.53;52.02
47785;BME280;35233;55.686;37.848;2023-04-28T08:20:11;99317.53;;;19.04;50.00
47785;BME280;35233;55.686;37.848;2023-04-28T08:22:39;99326.47;;;19.17;49.40
47785;BME280;35233;55.686;37.848;2023-04-28T08:25:08;99333.56;;;18.64;51.43
47785;BME280;35233;55.686;37.848;2023-04-28T08:27:38;99330.78;;;18.92;50.79
47785;BME280;35233;55.686;37.848;2023-04-28T08:30:11;99331.72;;;18.51;52.08
47785;BME280;35233;55.686;37.848;2023-04-28T08:32:44;99331.22;;;18.59;51.97
47785;BME280;35233;55.686;37.848;2023-04-28T08:35:10;99333.88;;;18.32;52.73
47785;BME280;35233;55.686;37.848;2023-04-28T08:37:37;99335.31;;;18.65;51.65
47785;BME280;35233;55.686;37.848;2023-04-28T08:40:03;99335.03;;;18.55;51.59
47785;BME280;35233;55.686;37.848;2023-04-28T08:42:34;99335.25;;;18.25;52.78
47785;BME280;35233;55.686;37.848;2023-04-28T08:45:02;99332.38;;;18.55;52.14
47785;BME280;35233;55.686;37.848;2023-04-28T08:47:35;99337.66;;;18.96;50.96
47785;BME280;35233;55.686;37.848;2023-04-28T08:50:06;99333.38;;;18.67;51.96
47785;BME280;35233;55.686;37.848;2023-04-28T08:52:32;99340.44;;;18.41;52.57
47785;BME280;35233;55.686;37.848;2023-04-28T08:55:00;99327.91;;;18.14;53.27
47785;BME280;35233;55.686;37.848;2023-04-28T08:57:27;99336.06;;;17.98;53.92
47785;BME280;35233;55.686;37.848;2023-04-28T08:59:57;99332.78;;;18.22;53.08
47785;BME280;35233;55.686;37.848;2023-04-28T09:02:23;99338.06;;;17.95;53.75
47785;BME280;35233;55.686;37.848;2023-04-28T09:04:49;99337.97;;;18.38;52.54
47785;BME280;35233;55.686;37.848;2023-04-28T09:07:14;99339.06;;;18.21;53.07
47785;BME280;35233;55.686;37.848;2023-04-28T09:09:40;99334.72;;;18.05;54.51
47785;BME280;35233;55.686;37.848;2023-04-28T09:12:06;99340.63;;;18.10;54.06
47785;BME280;35233;55.686;37.848;2023-04-28T09:14:34;99342.81;;;18.45;53.51
47785;BME280;35233;55.686;37.848;2023-04-28T09:17:01;99335.88;;;19.35;51.01
47785;BME280;35233;55.686;37.848;2023-04-28T09:19:35;99328.72;;;19.74;49.65
47785;BME280;35233;55.686;37.848;2023-04-28T09:22:01;99334.06;;;19.61;51.12
47785;BME280;35233;55.686;37.848;2023-04-28T09:24:38;99337.25;;;19.28;51.51
47785;BME280;35233;55.686;37.848;2023-04-28T09:27:06;99334.28;;;19.20;52.25
47785;BME280;35233;55.686;37.848;2023-04-28T09:29:35;99335.56;;;19.27;52.30
47785;BME280;35233;55.686;37.848;2023-04-28T09:34:44;99336.63;;;19.12;52.69
47785;BME280;35233;55.686;37.848;2023-04-28T09:37:15;99323.44;;;19.34;51.16
47785;BME280;35233;55.686;37.848;2023-04-28T09:39:45;99331.59;;;19.71;49.82
47785;BME280;35233;55.686;37.848;2023-04-28T09:42:30;99334.50;;;19.30;51.45
47785;BME280;35233;55.686;37.848;2023-04-28T09:44:56;99327.09;;;19.20;52.22
47785;BME280;35233;55.686;37.848;2023-04-28T09:47:22;99328.28;;;19.42;51.78
47785;BME280;35233;55.686;37.848;2023-04-28T09:49:55;99337.81;;;19.33;51.86
47785;BME280;35233;55.686;37.848;2023-04-28T09:52:21;99336.84;;;19.09;52.51
47785;BME280;35233;55.686;37.848;2023-04-28T09:54:49;99333.72;;;19.28;51.77
47785;BME280;35233;55.686;37.848;2023-04-28T09:57:16;99331.47;;;19.09;53.13
47785;BME280;35233;55.686;37.848;2023-04-28T09:59:50;99335.78;;;19.50;50.85
47785;BME280;35233;55.686;37.848;2023-04-28T10:02:17;99346.34;;;19.13;52.93
47785;BME280;35233;55.686;37.848;2023-04-28T10:04:44;99336.78;;;18.96;53.21
47785;BME280;35233;55.686;37.848;2023-04-28T10:07:14;99351.19;;;19.20;52.54
47785;BME280;35233;55.686;37.848;2023-04-28T10:09:42;99353.31;;;19.28;52.53
47785;BME280;35233;55.686;37.848;2023-04-28T10:12:17;99352.06;;;19.21;53.22
47785;BME280;35233;55.686;37.848;2023-04-28T10:14:44;99359.09;;;19.09;53.50
47785;BME280;35233;55.686;37.848;2023-04-28T10:17:13;99353.97;;;19.19;52.98
47785;BME280;35233;55.686;37.848;2023-04-28T10:19:45;99356.13;;;19.39;51.47
47785;BME280;35233;55.686;37.848;2023-04-28T10:27:33;99357.88;;;18.19;56.76
47785;BME280;35233;55.686;37.848;2023-04-28T10:30:10;99351.47;;;17.80;58.38
47785;BME280;35233;55.686;37.848;2023-04-28T10:32:36;99357.25;;;18.16;57.22
47785;BME280;35233;55.686;37.848;2023-04-28T10:38:10;99356.00;;;18.21;56.83
47785;BME280;35233;55.686;37.848;2023-04-28T10:40:43;99347.59;;;18.67;55.59
47785;BME280;35233;55.686;37.848;2023-04-28T10:43:10;99347.25;;;18.73;55.56
47785;BME280;35233;55.686;37.848;2023-04-28T10:56:10;99350.94;;;18.71;54.34
47785;BME280;35233;55.686;37.848;2023-04-28T10:58:40;99346.50;;;18.30;55.80
47785;BME280;35233;55.686;37.848;2023-04-28T11:04:26;99348.94;;;18.06;56.28
47785;BME280;35233;55.686;37.848;2023-04-28T11:06:46;99349.94;;;18.18;56.01
47785;BME280;35233;55.686;37.848;2023-04-28T11:17:05;99350.38;;;18.80;53.82
47785;BME280;35233;55.686;37.848;2023-04-28T11:19:33;99356.81;;;18.90;53.83
47785;BME280;35233;55.686;37.848;2023-04-28T11:22:02;99343.47;;;19.54;51.88
47785;BME280;35233;55.686;37.848;2023-04-28T11:24:29;99351.13;;;19.73;50.15
47785;BME280;35233;55.686;37.848;2023-04-28T11:26:56;99358.03;;;19.12;53.53
47785;BME280;35233;55.686;37.848;2023-04-28T11:29:38;99351.94;;;19.48;51.94
47785;BME280;35233;55.686;37.848;2023-04-28T11:32:05;99351.09;;;19.48;52.04
47785;BME280;35233;55.686;37.848;2023-04-28T11:34:32;99362.34;;;19.40;52.68
47785;BME280;35233;55.686;37.848;2023-04-28T11:36:57;99360.41;;;19.42;52.44
47785;BME280;35233;55.686;37.848;2023-04-28T11:39:31;99352.59;;;19.52;51.91
47785;BME280;35233;55.686;37.848;2023-04-28T11:42:00;99351.44;;;19.56;52.53
47785;BME280;35233;55.686;37.848;2023-04-28T11:44:30;99349.03;;;19.00;53.88
47785;BME280;35233;55.686;37.848;2023-04-28T11:46:57;99348.41;;;19.48;52.29
47785;BME280;35233;55.686;37.848;2023-04-28T11:49:47;99360.94;;;19.34;53.21
47785;BME280;35233;55.686;37.848;2023-04-28T11:52:13;99354.31;;;19.27;53.77
47785;BME280;35233;55.686;37.848;2023-04-28T11:54:39;99350.03;;;19.50;52.74
47785;BME280;35233;55.686;37.848;2023-04-28T11:57:16;99350.97;;;19.36;53.15
47785;BME280;35233;55.686;37.848;2023-04-28T11:59:48;99354.19;;;19.16;53.52
47785;BME280;35233;55.686;37.848;2023-04-28T12:05:29;99355.06;;;18.76;55.31
47785;BME280;35233;55.686;37.848;2023-04-28T12:08:03;99353.03;;;18.80;55.10
47785;BME280;35233;55.686;37.848;2023-04-28T12:10:29;99356.22;;;19.12;54.11
47785;BME280;35233;55.686;37.848;2023-04-28T12:12:55;99337.25;;;19.15;53.56
47785;BME280;35233;55.686;37.848;2023-04-28T12:15:21;99336.94;;;19.45;52.03
47785;BME280;35233;55.686;37.848;2023-04-28T12:17:49;99339.53;;;19.85;51.13
47785;BME280;35233;55.686;37.848;2023-04-28T12:20:34;99339.66;;;19.84;50.96
47785;BME280;35233;55.686;37.848;2023-04-28T12:23:00;99330.94;;;19.80;50.59
47785;BME280;35233;55.686;37.848;2023-04-28T12:25:26;99333.84;;;19.77;51.21
47785;BME280;35233;55.686;37.848;2023-04-28T12:28:07;99339.78;;;19.70;51.75
47785;BME280;35233;55.686;37.848;2023-04-28T12:30:35;99330.97;;;19.67;51.69
47785;BME280;35233;55.686;37.848;2023-04-28T12:33:06;99335.59;;;19.78;51.33
47785;BME280;35233;55.686;37.848;2023-04-28T12:35:45;99327.00;;;19.35;52.65
47785;BME280;35233;55.686;37.848;2023-04-28T12:38:13;99325.81;;;19.26;52.45
47785;BME280;35233;55.686;37.848;2023-04-28T12:40:46;99334.50;;;19.55;51.62
47785;BME280;35233;55.686;37.848;2023-04-28T12:43:11;99330.00;;;19.81;50.61
47785;BME280;35233;55.686;37.848;2023-04-28T12:45:37;99339.22;;;19.77;51.23
47785;BME280;35233;55.686;37.848;2023-04-28T12:48:06;99339.00;;;19.67;51.96
47785;BME280;35233;55.686;37.848;2023-04-28T12:50:35;99317.75;;;19.90;50.46
47785;BME280;35233;55.686;37.848;2023-04-28T12:53:04;99310.28;;;20.19;50.01
47785;BME280;35233;55.686;37.848;2023-04-28T12:55:30;99319.81;;;19.61;51.53
47785;BME280;35233;55.686;37.848;2023-04-28T12:57:56;99328.28;;;19.55;52.08
47785;BME280;35233;55.686;37.848;2023-04-28T13:00:22;99333.41;;;19.83;50.97
47785;BME280;35233;55.686;37.848;2023-04-28T13:02:49;99324.72;;;19.93;50.50
47785;BME280;35233;55.686;37.848;2023-04-28T13:05:15;99324.09;;;19.63;51.50
47785;BME280;35233;55.686;37.848;2023-04-28T13:07:41;99318.53;;;19.79;51.03
47785;BME280;35233;55.686;37.848;2023-04-28T13:10:08;99329.22;;;19.54;51.26
47785;BME280;35233;55.686;37.848;2023-04-28T13:12:34;99323.44;;;19.60;51.38
47785;BME280;35233;55.686;37.848;2023-04-28T13:15:00;99327.72;;;19.24;52.37
47785;BME280;35233;55.686;37.848;2023-04-28T13:17:26;99319.72;;;19.50;51.89
47785;BME280;35233;55.686;37.848;2023-04-28T13:19:54;99319.25;;;19.43;51.95
47785;BME280;35233;55.686;37.848;2023-04-28T13:22:20;99324.97;;;19.38;52.14
47785;BME280;35233;55.686;37.848;2023-04-28T13:24:48;99321.19;;;18.36;54.06
47785;BME280;35233;55.686;37.848;2023-04-28T13:27:14;99331.06;;;18.48;53.84
47785;BME280;35233;55.686;37.848;2023-04-28T13:29:39;99327.44;;;18.76;53.50
47785;BME280;35233;55.686;37.848;2023-04-28T13:32:05;99335.94;;;18.83;53.61
47785;BME280;35233;55.686;37.848;2023-04-28T13:34:31;99338.13;;;18.76;53.66
47785;BME280;35233;55.686;37.848;2023-04-28T13:36:57;99344.06;;;18.67;53.34
47785;BME280;35233;55.686;37.848;2023-04-28T13:39:22;99347.91;;;18.77;53.23
47785;BME280;35233;55.686;37.848;2023-04-28T13:41:48;99340.09;;;18.60;53.99